sensor_id;sensor_type;location;lat;lon;timestamp;temperature;humidity
27413;DHT22;14871;52.702;5.230;2022-08-14T00:01:09;27.10;73.20
27413;DHT22;14871;52.702;5.230;2022-08-14T00:03:34;27.10;72.90
27413;DHT22;14871;52.702;5.230;2022-08-14T00:06:01;27.10;72.70
27413;DHT22;14871;52.702;5.230;2022-08-14T00:08:28;27.10;72.70
27413;DHT22;14871;52.702;5.230;2022-08-14T00:10:54;27.00;72.50
27413;DHT22;14871;52.702;5.230;2022-08-14T00:13:23;27.00;72.40
27413;DHT22;14871;52.702;5.230;2022-08-14T00:15:50;27.00;72.50
27413;DHT22;14871;52.702;5.230;2022-08-14T00:18:21;26.90;72.90
27413;DHT22;14871;52.702;5.230;2022-08-14T00:20:47;26.90;73.00
27413;DHT22;14871;52.702;5.230;2022-08-14T00:23:15;26.90;73.40
27413;DHT22;14871;52.702;5.230;2022-08-14T00:25:42;26.90;73.50
27413;DHT22;14871;52.702;5.230;2022-08-14T00:28:10;26.90;73.90
27413;DHT22;14871;52.702;5.230;2022-08-14T00:30:36;26.90;73.70
27413;DHT22;14871;52.702;5.230;2022-08-14T00:33:02;26.80;73.90
27413;DHT22;14871;52.702;5.230;2022-08-14T00:35:29;26.80;73.90
27413;DHT22;14871;52.702;5.230;2022-08-14T00:37:55;26.80;74.10
27413;DHT22;14871;52.702;5.230;2022-08-14T00:40:20;26.80;74.30
27413;DHT22;14871;52.702;5.230;2022-08-14T00:42:47;26.80;74.50
27413;DHT22;14871;52.702;5.230;2022-08-14T00:45:14;26.70;74.80
27413;DHT22;14871;52.702;5.230;2022-08-14T00:47:43;26.70;74.90
27413;DHT22;14871;52.702;5.230;2022-08-14T00:50:11;26.70;75.30
27413;DHT22;14871;52.702;5.230;2022-08-14T00:52:37;26.60;75.60
27413;DHT22;14871;52.702;5.230;2022-08-14T00:55:05;26.60;76.20
27413;DHT22;14871;52.702;5.230;2022-08-14T00:57:32;26.60;76.60
27413;DHT22;14871;52.702;5.230;2022-08-14T00:59:59;26.60;76.90
27413;DHT22;14871;52.702;5.230;2022-08-14T01:02:25;26.60;76.90
27413;DHT22;14871;52.702;5.230;2022-08-14T01:04:53;26.50;77.20
27413;DHT22;14871;52.702;5.230;2022-08-14T01:07:20;26.50;77.40
27413;DHT22;14871;52.702;5.230;2022-08-14T01:09:48;26.50;77.30
27413;DHT22;14871;52.702;5.230;2022-08-14T01:12:16;26.50;77.40
27413;DHT22;14871;52.702;5.230;2022-08-14T01:14:42;26.40;77.50
27413;DHT22;14871;52.702;5.230;2022-08-14T01:17:08;26.40;77.60
27413;DHT22;14871;52.702;5.230;2022-08-14T01:19:33;26.30;77.70
27413;DHT22;14871;52.702;5.230;2022-08-14T01:22:18;26.30;77.90
27413;DHT22;14871;52.702;5.230;2022-08-14T01:24:44;26.30;78.00
27413;DHT22;14871;52.702;5.230;2022-08-14T01:27:18;26.30;77.80
27413;DHT22;14871;52.702;5.230;2022-08-14T01:29:50;26.20;78.10
27413;DHT22;14871;52.702;5.230;2022-08-14T01:32:17;26.20;78.00
27413;DHT22;14871;52.702;5.230;2022-08-14T01:34:48;26.10;78.10
27413;DHT22;14871;52.702;5.230;2022-08-14T01:37:15;26.10;78.10
27413;DHT22;14871;52.702;5.230;2022-08-14T01:39:41;26.10;78.30
27413;DHT22;14871;52.702;5.230;2022-08-14T01:42:07;26.10;79.20
27413;DHT22;14871;52.702;5.230;2022-08-14T01:44:33;26.10;78.40
27413;DHT22;14871;52.702;5.230;2022-08-14T01:47:07;26.10;78.60
27413;DHT22;14871;52.702;5.230;2022-08-14T01:49:41;26.10;78.70
27413;DHT22;14871;52.702;5.230;2022-08-14T01:52:07;26.10;78.80
27413;DHT22;14871;52.702;5.230;2022-08-14T01:54:34;26.10;79.10
27413;DHT22;14871;52.702;5.230;2022-08-14T01:57:00;26.00;79.50
27413;DHT22;14871;52.702;5.230;2022-08-14T01:59:31;25.90;80.00
27413;DHT22;14871;52.702;5.230;2022-08-14T02:01:59;25.90;80.90
27413;DHT22;14871;52.702;5.230;2022-08-14T02:04:31;25.90;80.10
27413;DHT22;14871;52.702;5.230;2022-08-14T02:06:58;25.90;80.10
27413;DHT22;14871;52.702;5.230;2022-08-14T02:09:24;25.80;80.50
27413;DHT22;14871;52.702;5.230;2022-08-14T02:11:51;25.70;80.70
27413;DHT22;14871;52.702;5.230;2022-08-14T02:14:17;25.80;80.50
27413;DHT22;14871;52.702;5.230;2022-08-14T02:16:45;25.80;80.60
27413;DHT22;14871;52.702;5.230;2022-08-14T02:19:16;25.80;80.60
27413;DHT22;14871;52.702;5.230;2022-08-14T02:21:44;25.70;80.80
27413;DHT22;14871;52.702;5.230;2022-08-14T02:24:11;25.70;81.90
27413;DHT22;14871;52.702;5.230;2022-08-14T02:26:39;25.70;80.80
27413;DHT22;14871;52.702;5.230;2022-08-14T02:29:08;25.70;80.80
27413;DHT22;14871;52.702;5.230;2022-08-14T02:31:37;25.70;80.90
27413;DHT22;14871;52.702;5.230;2022-08-14T02:34:26;25.70;81.00
27413;DHT22;14871;52.702;5.230;2022-08-14T02:36:55;25.70;81.20
27413;DHT22;14871;52.702;5.230;2022-08-14T02:39:24;25.70;81.40
27413;DHT22;14871;52.702;5.230;2022-08-14T02:41:50;25.60;81.30
27413;DHT22;14871;52.702;5.230;2022-08-14T02:44:17;25.60;81.30
27413;DHT22;14871;52.702;5.230;2022-08-14T02:46:48;25.60;81.60
27413;DHT22;14871;52.702;5.230;2022-08-14T02:49:14;25.50;81.50
27413;DHT22;14871;52.702;5.230;2022-08-14T02:51:40;25.60;81.30
27413;DHT22;14871;52.702;5.230;2022-08-14T02:54:07;25.50;81.30
27413;DHT22;14871;52.702;5.230;2022-08-14T02:56:35;25.60;81.50
27413;DHT22;14871;52.702;5.230;2022-08-14T02:59:04;25.50;81.90
27413;DHT22;14871;52.702;5.230;2022-08-14T03:01:31;25.50;81.90
27413;DHT22;14871;52.702;5.230;2022-08-14T03:03:58;25.50;82.00
27413;DHT22;14871;52.702;5.230;2022-08-14T03:06:23;25.50;82.10
27413;DHT22;14871;52.702;5.230;2022-08-14T03:08:52;25.50;82.10
27413;DHT22;14871;52.702;5.230;2022-08-14T03:11:19;25.40;82.20
27413;DHT22;14871;52.702;5.230;2022-08-14T03:13:47;25.40;82.40
27413;DHT22;14871;52.702;5.230;2022-08-14T03:16:20;25.30;82.80
27413;DHT22;14871;52.702;5.230;2022-08-14T03:18:48;25.30;82.70
27413;DHT22;14871;52.702;5.230;2022-08-14T03:21:16;25.30;82.70
27413;DHT22;14871;52.702;5.230;2022-08-14T03:23:45;25.30;83.70
27413;DHT22;14871;52.702;5.230;2022-08-14T03:26:17;25.20;83.30
27413;DHT22;14871;52.702;5.230;2022-08-14T03:28:47;25.30;83.30
27413;DHT22;14871;52.702;5.230;2022-08-14T03:31:13;25.20;83.30
27413;DHT22;14871;52.702;5.230;2022-08-14T03:33:40;25.20;83.60
27413;DHT22;14871;52.702;5.230;2022-08-14T03:36:08;25.20;83.50
27413;DHT22;14871;52.702;5.230;2022-08-14T03:38:41;25.30;83.50
27413;DHT22;14871;52.702;5.230;2022-08-14T03:41:15;25.20;83.90
27413;DHT22;14871;52.702;5.230;2022-08-14T03:43:48;25.10;84.10
27413;DHT22;14871;52.702;5.230;2022-08-14T03:46:15;25.20;84.10
27413;DHT22;14871;52.702;5.230;2022-08-14T03:48:42;25.10;84.30
27413;DHT22;14871;52.702;5.230;2022-08-14T03:51:09;25.10;84.60
27413;DHT22;14871;52.702;5.230;2022-08-14T03:53:37;25.10;84.70
27413;DHT22;14871;52.702;5.230;2022-08-14T03:56:04;25.10;84.90
27413;DHT22;14871;52.702;5.230;2022-08-14T03:58:30;25.00;85.00
27413;DHT22;14871;52.702;5.230;2022-08-14T04:00:57;25.10;85.10
27413;DHT22;14871;52.702;5.230;2022-08-14T04:03:23;24.90;85.20
27413;DHT22;14871;52.702;5.230;2022-08-14T04:05:51;24.90;85.10
27413;DHT22;14871;52.702;5.230;2022-08-14T04:08:17;24.90;85.30
27413;DHT22;14871;52.702;5.230;2022-08-14T04:10:43;24.90;85.30
27413;DHT22;14871;52.702;5.230;2022-08-14T04:13:11;24.80;85.70
27413;DHT22;14871;52.702;5.230;2022-08-14T04:15:37;24.90;85.60
27413;DHT22;14871;52.702;5.230;2022-08-14T04:18:06;24.80;85.80
27413;DHT22;14871;52.702;5.230;2022-08-14T04:20:33;24.80;85.80
27413;DHT22;14871;52.702;5.230;2022-08-14T04:22:59;24.70;86.00
27413;DHT22;14871;52.702;5.230;2022-08-14T04:25:25;24.70;86.10
27413;DHT22;14871;52.702;5.230;2022-08-14T04:27:50;24.70;86.30
27413;DHT22;14871;52.702;5.230;2022-08-14T04:30:16;24.70;86.50
27413;DHT22;14871;52.702;5.230;2022-08-14T04:32:41;24.70;86.70
27413;DHT22;14871;52.702;5.230;2022-08-14T04:35:07;24.70;86.90
27413;DHT22;14871;52.702;5.230;2022-08-14T04:37:35;24.60;87.00
27413;DHT22;14871;52.702;5.230;2022-08-14T04:40:19;24.70;87.10
27413;DHT22;14871;52.702;5.230;2022-08-14T04:43:03;24.60;87.60
27413;DHT22;14871;52.702;5.230;2022-08-14T04:45:47;24.50;87.80
27413;DHT22;14871;52.702;5.230;2022-08-14T04:48:14;24.50;88.10
27413;DHT22;14871;52.702;5.230;2022-08-14T04:50:44;24.60;88.30
27413;DHT22;14871;52.702;5.230;2022-08-14T04:53:13;24.60;88.40
27413;DHT22;14871;52.702;5.230;2022-08-14T04:55:44;24.50;88.70
27413;DHT22;14871;52.702;5.230;2022-08-14T04:58:16;24.50;88.80
27413;DHT22;14871;52.702;5.230;2022-08-14T05:00:46;24.50;88.90
27413;DHT22;14871;52.702;5.230;2022-08-14T05:03:16;24.50;89.10
27413;DHT22;14871;52.702;5.230;2022-08-14T05:05:48;24.50;89.20
27413;DHT22;14871;52.702;5.230;2022-08-14T05:08:14;24.50;89.20
27413;DHT22;14871;52.702;5.230;2022-08-14T05:10:43;24.50;89.40
27413;DHT22;14871;52.702;5.230;2022-08-14T05:13:09;24.50;89.60
27413;DHT22;14871;52.702;5.230;2022-08-14T05:15:37;24.40;90.00
27413;DHT22;14871;52.702;5.230;2022-08-14T05:18:07;24.50;89.90
27413;DHT22;14871;52.702;5.230;2022-08-14T05:20:38;24.50;90.00
27413;DHT22;14871;52.702;5.230;2022-08-14T05:23:04;24.40;90.10
27413;DHT22;14871;52.702;5.230;2022-08-14T05:25:32;24.40;90.20
27413;DHT22;14871;52.702;5.230;2022-08-14T05:28:18;24.40;90.30
27413;DHT22;14871;52.702;5.230;2022-08-14T05:30:49;24.30;90.50
27413;DHT22;14871;52.702;5.230;2022-08-14T05:33:16;24.30;90.60
27413;DHT22;14871;52.702;5.230;2022-08-14T05:35:43;24.20;90.90
27413;DHT22;14871;52.702;5.230;2022-08-14T05:38:11;24.20;90.90
27413;DHT22;14871;52.702;5.230;2022-08-14T05:40:40;24.20;90.90
27413;DHT22;14871;52.702;5.230;2022-08-14T05:43:06;24.30;90.90
27413;DHT22;14871;52.702;5.230;2022-08-14T05:45:32;24.20;91.10
27413;DHT22;14871;52.702;5.230;2022-08-14T05:48:02;24.30;90.90
27413;DHT22;14871;52.702;5.230;2022-08-14T05:50:29;24.30;90.80
27413;DHT22;14871;52.702;5.230;2022-08-14T05:52:55;24.40;90.80
27413;DHT22;14871;52.702;5.230;2022-08-14T05:55:21;24.20;91.10
27413;DHT22;14871;52.702;5.230;2022-08-14T05:57:59;24.20;91.30
27413;DHT22;14871;52.702;5.230;2022-08-14T06:00:28;24.20;91.40
27413;DHT22;14871;52.702;5.230;2022-08-14T06:02:54;24.20;91.50
27413;DHT22;14871;52.702;5.230;2022-08-14T06:05:22;24.30;91.50
27413;DHT22;14871;52.702;5.230;2022-08-14T06:07:47;24.20;91.60
27413;DHT22;14871;52.702;5.230;2022-08-14T06:10:13;24.30;91.50
27413;DHT22;14871;52.702;5.230;2022-08-14T06:12:38;24.40;91.30
27413;DHT22;14871;52.702;5.230;2022-08-14T06:15:05;24.40;91.30
27413;DHT22;14871;52.702;5.230;2022-08-14T06:17:31;24.50;91.10
27413;DHT22;14871;52.702;5.230;2022-08-14T06:20:07;24.60;91.10
27413;DHT22;14871;52.702;5.230;2022-08-14T06:22:33;24.60;91.20
27413;DHT22;14871;52.702;5.230;2022-08-14T06:24:58;24.70;91.00
27413;DHT22;14871;52.702;5.230;2022-08-14T06:27:24;24.70;91.00
27413;DHT22;14871;52.702;5.230;2022-08-14T06:29:49;24.70;90.90
27413;DHT22;14871;52.702;5.230;2022-08-14T06:32:15;24.60;91.00
27413;DHT22;14871;52.702;5.230;2022-08-14T06:34:40;24.80;91.00
27413;DHT22;14871;52.702;5.230;2022-08-14T06:37:06;24.80;91.10
27413;DHT22;14871;52.702;5.230;2022-08-14T06:39:31;24.90;91.00
27413;DHT22;14871;52.702;5.230;2022-08-14T06:41:58;25.00;90.80
27413;DHT22;14871;52.702;5.230;2022-08-14T06:44:24;25.10;90.60
27413;DHT22;14871;52.702;5.230;2022-08-14T06:46:50;25.00;90.60
27413;DHT22;14871;52.702;5.230;2022-08-14T06:49:15;25.10;90.40
27413;DHT22;14871;52.702;5.230;2022-08-14T06:51:41;25.00;90.70
27413;DHT22;14871;52.702;5.230;2022-08-14T06:54:11;25.00;90.40
27413;DHT22;14871;52.702;5.230;2022-08-14T06:56:38;25.10;90.30
27413;DHT22;14871;52.702;5.230;2022-08-14T06:59:04;25.30;90.00
27413;DHT22;14871;52.702;5.230;2022-08-14T07:01:30;25.40;89.10
27413;DHT22;14871;52.702;5.230;2022-08-14T07:04:14;25.50;88.90
27413;DHT22;14871;52.702;5.230;2022-08-14T07:06:58;25.60;88.90
27413;DHT22;14871;52.702;5.230;2022-08-14T07:09:24;25.70;88.30
27413;DHT22;14871;52.702;5.230;2022-08-14T07:11:50;25.80;88.10
27413;DHT22;14871;52.702;5.230;2022-08-14T07:14:16;26.00;87.30
27413;DHT22;14871;52.702;5.230;2022-08-14T07:16:42;26.00;87.40
27413;DHT22;14871;52.702;5.230;2022-08-14T07:19:07;26.20;87.00
27413;DHT22;14871;52.702;5.230;2022-08-14T07:21:34;26.30;86.80
27413;DHT22;14871;52.702;5.230;2022-08-14T07:24:01;26.30;87.00
27413;DHT22;14871;52.702;5.230;2022-08-14T07:26:27;26.60;86.60
27413;DHT22;14871;52.702;5.230;2022-08-14T07:28:53;26.70;86.00
27413;DHT22;14871;52.702;5.230;2022-08-14T07:31:18;26.80;85.50
27413;DHT22;14871;52.702;5.230;2022-08-14T07:33:46;27.10;84.60
27413;DHT22;14871;52.702;5.230;2022-08-14T07:36:14;27.10;84.40
27413;DHT22;14871;52.702;5.230;2022-08-14T07:38:40;27.10;83.70
27413;DHT22;14871;52.702;5.230;2022-08-14T07:41:06;27.20;84.40
27413;DHT22;14871;52.702;5.230;2022-08-14T07:43:33;27.30;83.00
27413;DHT22;14871;52.702;5.230;2022-08-14T07:45:59;27.40;82.50
27413;DHT22;14871;52.702;5.230;2022-08-14T07:48:24;27.50;82.20
27413;DHT22;14871;52.702;5.230;2022-08-14T07:50:50;27.60;81.40
27413;DHT22;14871;52.702;5.230;2022-08-14T07:53:17;27.60;81.10
27413;DHT22;14871;52.702;5.230;2022-08-14T07:55:44;27.60;81.70
27413;DHT22;14871;52.702;5.230;2022-08-14T07:58:13;27.70;80.00
27413;DHT22;14871;52.702;5.230;2022-08-14T08:00:39;27.70;79.90
27413;DHT22;14871;52.702;5.230;2022-08-14T08:03:07;27.90;80.10
27413;DHT22;14871;52.702;5.230;2022-08-14T08:05:37;28.10;80.80
27413;DHT22;14871;52.702;5.230;2022-08-14T08:08:04;28.20;80.60
27413;DHT22;14871;52.702;5.230;2022-08-14T08:10:31;28.20;80.00
27413;DHT22;14871;52.702;5.230;2022-08-14T08:15:31;28.30;79.20
27413;DHT22;14871;52.702;5.230;2022-08-14T08:18:01;28.40;78.70
27413;DHT22;14871;52.702;5.230;2022-08-14T08:20:30;28.40;78.60
27413;DHT22;14871;52.702;5.230;2022-08-14T08:22:57;28.40;78.60
27413;DHT22;14871;52.702;5.230;2022-08-14T08:25:24;28.50;78.00
27413;DHT22;14871;52.702;5.230;2022-08-14T08:30:20;28.60;77.40
27413;DHT22;14871;52.702;5.230;2022-08-14T08:32:46;28.60;77.30
27413;DHT22;14871;52.702;5.230;2022-08-14T08:35:23;28.70;76.90
27413;DHT22;14871;52.702;5.230;2022-08-14T08:37:51;28.80;76.90
27413;DHT22;14871;52.702;5.230;2022-08-14T08:40:26;28.90;77.30
27413;DHT22;14871;52.702;5.230;2022-08-14T08:42:52;29.00;77.30
27413;DHT22;14871;52.702;5.230;2022-08-14T08:45:18;29.00;77.00
27413;DHT22;14871;52.702;5.230;2022-08-14T08:47:44;29.10;76.10
27413;DHT22;14871;52.702;5.230;2022-08-14T08:50:19;29.20;76.30
27413;DHT22;14871;52.702;5.230;2022-08-14T08:52:53;29.30;75.80
27413;DHT22;14871;52.702;5.230;2022-08-14T08:55:44;29.50;74.70
27413;DHT22;14871;52.702;5.230;2022-08-14T08:58:16;29.50;73.90
27413;DHT22;14871;52.702;5.230;2022-08-14T09:00:49;29.60;74.00
27413;DHT22;14871;52.702;5.230;2022-08-14T09:03:18;29.70;74.20
27413;DHT22;14871;52.702;5.230;2022-08-14T09:05:53;29.70;74.30
27413;DHT22;14871;52.702;5.230;2022-08-14T09:08:21;29.90;73.20
27413;DHT22;14871;52.702;5.230;2022-08-14T09:10:49;30.00;72.50
27413;DHT22;14871;52.702;5.230;2022-08-14T09:13:16;30.10;71.80
27413;DHT22;14871;52.702;5.230;2022-08-14T09:15:43;30.10;71.10
27413;DHT22;14871;52.702;5.230;2022-08-14T09:18:10;30.20;70.50
27413;DHT22;14871;52.702;5.230;2022-08-14T09:20:38;30.40;70.30
27413;DHT22;14871;52.702;5.230;2022-08-14T09:23:05;30.40;69.60
27413;DHT22;14871;52.702;5.230;2022-08-14T09:25:31;30.50;69.80
27413;DHT22;14871;52.702;5.230;2022-08-14T09:27:56;30.50;69.60
27413;DHT22;14871;52.702;5.230;2022-08-14T09:30:22;30.60;67.40
27413;DHT22;14871;52.702;5.230;2022-08-14T09:33:06;30.70;66.30
27413;DHT22;14871;52.702;5.230;2022-08-14T09:35:46;30.80;65.90
27413;DHT22;14871;52.702;5.230;2022-08-14T09:38:46;30.80;65.20
27413;DHT22;14871;52.702;5.230;2022-08-14T09:41:36;30.80;64.80
27413;DHT22;14871;52.702;5.230;2022-08-14T09:44:32;30.90;64.70
27413;DHT22;14871;52.702;5.230;2022-08-14T09:47:03;31.00;64.70
27413;DHT22;14871;52.702;5.230;2022-08-14T09:49:34;31.10;63.90
27413;DHT22;14871;52.702;5.230;2022-08-14T09:52:09;31.10;63.60
27413;DHT22;14871;52.702;5.230;2022-08-14T09:54:37;31.20;63.10
27413;DHT22;14871;52.702;5.230;2022-08-14T09:57:04;31.40;62.70
27413;DHT22;14871;52.702;5.230;2022-08-14T09:59:46;31.40;62.10
27413;DHT22;14871;52.702;5.230;2022-08-14T10:02:27;31.50;62.30
27413;DHT22;14871;52.702;5.230;2022-08-14T10:05:09;31.60;62.80
27413;DHT22;14871;52.702;5.230;2022-08-14T10:07:56;31.80;61.80
27413;DHT22;14871;52.702;5.230;2022-08-14T10:10:36;31.90;60.10
27413;DHT22;14871;52.702;5.230;2022-08-14T10:13:07;31.90;60.10
27413;DHT22;14871;52.702;5.230;2022-08-14T10:15:45;31.90;59.80
27413;DHT22;14871;52.702;5.230;2022-08-14T10:18:13;32.00;60.30
27413;DHT22;14871;52.702;5.230;2022-08-14T10:20:57;32.10;60.30
27413;DHT22;14871;52.702;5.230;2022-08-14T10:23:25;32.30;59.30
27413;DHT22;14871;52.702;5.230;2022-08-14T10:25:57;32.40;58.00
27413;DHT22;14871;52.702;5.230;2022-08-14T10:28:23;32.50;58.50
27413;DHT22;14871;52.702;5.230;2022-08-14T10:30:50;32.60;59.00
27413;DHT22;14871;52.702;5.230;2022-08-14T10:33:30;32.70;57.60
27413;DHT22;14871;52.702;5.230;2022-08-14T10:35:57;32.80;58.00
27413;DHT22;14871;52.702;5.230;2022-08-14T10:38:28;32.90;57.50
27413;DHT22;14871;52.702;5.230;2022-08-14T10:40:56;33.00;57.30
27413;DHT22;14871;52.702;5.230;2022-08-14T10:43:34;33.10;57.90
27413;DHT22;14871;52.702;5.230;2022-08-14T10:46:00;33.20;57.60
27413;DHT22;14871;52.702;5.230;2022-08-14T10:48:26;33.30;57.10
27413;DHT22;14871;52.702;5.230;2022-08-14T10:50:52;33.30;57.10
27413;DHT22;14871;52.702;5.230;2022-08-14T10:53:33;33.40;57.00
27413;DHT22;14871;52.702;5.230;2022-08-14T10:56:05;33.50;57.40
27413;DHT22;14871;52.702;5.230;2022-08-14T10:58:32;33.50;55.80
27413;DHT22;14871;52.702;5.230;2022-08-14T11:01:00;33.50;56.10
27413;DHT22;14871;52.702;5.230;2022-08-14T11:03:41;33.60;55.90
27413;DHT22;14871;52.702;5.230;2022-08-14T11:06:12;33.70;56.10
27413;DHT22;14871;52.702;5.230;2022-08-14T11:08:40;33.80;56.20
27413;DHT22;14871;52.702;5.230;2022-08-14T11:11:06;33.80;57.10
27413;DHT22;14871;52.702;5.230;2022-08-14T11:13:31;33.90;56.10
27413;DHT22;14871;52.702;5.230;2022-08-14T11:16:00;34.00;55.90
27413;DHT22;14871;52.702;5.230;2022-08-14T11:18:26;34.10;55.60
27413;DHT22;14871;52.702;5.230;2022-08-14T11:20:54;34.20;55.50
27413;DHT22;14871;52.702;5.230;2022-08-14T11:23:28;34.20;55.30
27413;DHT22;14871;52.702;5.230;2022-08-14T11:25:56;34.30;55.00
27413;DHT22;14871;52.702;5.230;2022-08-14T11:28:24;34.30;55.30
27413;DHT22;14871;52.702;5.230;2022-08-14T11:30:50;34.40;55.10
27413;DHT22;14871;52.702;5.230;2022-08-14T11:33:21;34.30;55.70
27413;DHT22;14871;52.702;5.230;2022-08-14T11:35:48;34.40;55.80
27413;DHT22;14871;52.702;5.230;2022-08-14T11:38:14;34.40;55.70
27413;DHT22;14871;52.702;5.230;2022-08-14T11:40:43;34.50;55.80
27413;DHT22;14871;52.702;5.230;2022-08-14T11:43:09;34.50;56.10
27413;DHT22;14871;52.702;5.230;2022-08-14T11:45:39;34.70;55.30
27413;DHT22;14871;52.702;5.230;2022-08-14T11:48:18;34.80;54.40
27413;DHT22;14871;52.702;5.230;2022-08-14T11:50:46;34.80;54.20
27413;DHT22;14871;52.702;5.230;2022-08-14T11:53:27;34.90;53.70
27413;DHT22;14871;52.702;5.230;2022-08-14T11:56:05;35.00;52.80
27413;DHT22;14871;52.702;5.230;2022-08-14T11:58:33;35.20;54.20
27413;DHT22;14871;52.702;5.230;2022-08-14T12:01:01;35.30;53.10
27413;DHT22;14871;52.702;5.230;2022-08-14T12:03:54;35.40;52.00
27413;DHT22;14871;52.702;5.230;2022-08-14T12:06:23;35.50;52.20
27413;DHT22;14871;52.702;5.230;2022-08-14T12:08:49;35.70;52.30
27413;DHT22;14871;52.702;5.230;2022-08-14T12:11:19;35.90;51.40
27413;DHT22;14871;52.702;5.230;2022-08-14T12:13:46;35.90;51.00
27413;DHT22;14871;52.702;5.230;2022-08-14T12:16:13;36.00;51.00
27413;DHT22;14871;52.702;5.230;2022-08-14T12:18:45;36.10;50.50
27413;DHT22;14871;52.702;5.230;2022-08-14T12:21:24;36.10;50.30
27413;DHT22;14871;52.702;5.230;2022-08-14T12:24:08;36.10;50.10
27413;DHT22;14871;52.702;5.230;2022-08-14T12:26:34;36.20;49.30
27413;DHT22;14871;52.702;5.230;2022-08-14T12:29:13;36.20;49.60
27413;DHT22;14871;52.702;5.230;2022-08-14T12:31:41;36.30;50.00
27413;DHT22;14871;52.702;5.230;2022-08-14T12:34:10;36.30;49.20
27413;DHT22;14871;52.702;5.230;2022-08-14T12:36:36;36.50;49.40
27413;DHT22;14871;52.702;5.230;2022-08-14T12:39:17;36.60;49.00
27413;DHT22;14871;52.702;5.230;2022-08-14T12:41:51;36.80;49.80
27413;DHT22;14871;52.702;5.230;2022-08-14T12:44:28;36.90;48.80
27413;DHT22;14871;52.702;5.230;2022-08-14T12:47:03;36.90;48.50
27413;DHT22;14871;52.702;5.230;2022-08-14T12:49:29;37.00;47.40
27413;DHT22;14871;52.702;5.230;2022-08-14T12:51:57;37.10;46.90
27413;DHT22;14871;52.702;5.230;2022-08-14T12:54:23;37.10;47.20
27413;DHT22;14871;52.702;5.230;2022-08-14T12:56:49;37.20;47.00
27413;DHT22;14871;52.702;5.230;2022-08-14T12:59:15;37.20;45.80
27413;DHT22;14871;52.702;5.230;2022-08-14T13:01:43;37.30;45.70
27413;DHT22;14871;52.702;5.230;2022-08-14T13:04:13;37.30;44.50
27413;DHT22;14871;52.702;5.230;2022-08-14T13:06:46;37.30;44.40
27413;DHT22;14871;52.702;5.230;2022-08-14T13:09:15;37.30;44.00
27413;DHT22;14871;52.702;5.230;2022-08-14T13:11:49;37.40;45.20
27413;DHT22;14871;52.702;5.230;2022-08-14T13:14:18;37.50;44.60
27413;DHT22;14871;52.702;5.230;2022-08-14T13:16:47;37.50;45.10
27413;DHT22;14871;52.702;5.230;2022-08-14T13:19:15;37.50;43.70
27413;DHT22;14871;52.702;5.230;2022-08-14T13:21:42;37.40;44.00
27413;DHT22;14871;52.702;5.230;2022-08-14T13:24:12;37.40;44.00
27413;DHT22;14871;52.702;5.230;2022-08-14T13:26:44;37.40;43.80
27413;DHT22;14871;52.702;5.230;2022-08-14T13:29:10;37.40;43.50
27413;DHT22;14871;52.702;5.230;2022-08-14T13:31:41;37.50;44.60
27413;DHT22;14871;52.702;5.230;2022-08-14T13:34:11;37.60;44.20
27413;DHT22;14871;52.702;5.230;2022-08-14T13:36:38;37.70;44.50
27413;DHT22;14871;52.702;5.230;2022-08-14T13:39:05;37.80;44.00
27413;DHT22;14871;52.702;5.230;2022-08-14T13:41:32;37.80;44.30
27413;DHT22;14871;52.702;5.230;2022-08-14T13:43:58;37.90;43.90
27413;DHT22;14871;52.702;5.230;2022-08-14T13:46:23;37.90;44.00
27413;DHT22;14871;52.702;5.230;2022-08-14T13:48:49;38.00;43.70
27413;DHT22;14871;52.702;5.230;2022-08-14T13:51:16;38.00;43.10
27413;DHT22;14871;52.702;5.230;2022-08-14T13:53:47;38.00;43.70
27413;DHT22;14871;52.702;5.230;2022-08-14T13:56:14;37.90;42.80
27413;DHT22;14871;52.702;5.230;2022-08-14T13:58:41;37.90;42.60
27413;DHT22;14871;52.702;5.230;2022-08-14T14:01:10;38.00;42.10
27413;DHT22;14871;52.702;5.230;2022-08-14T14:03:38;37.90;41.90
27413;DHT22;14871;52.702;5.230;2022-08-14T14:06:10;38.00;41.70
27413;DHT22;14871;52.702;5.230;2022-08-14T14:08:43;38.00;40.50
27413;DHT22;14871;52.702;5.230;2022-08-14T14:11:11;37.80;41.50
27413;DHT22;14871;52.702;5.230;2022-08-14T14:13:40;37.90;41.70
27413;DHT22;14871;52.702;5.230;2022-08-14T14:16:08;37.90;41.20
27413;DHT22;14871;52.702;5.230;2022-08-14T14:18:35;37.90;41.10
27413;DHT22;14871;52.702;5.230;2022-08-14T14:21:03;37.90;41.00
27413;DHT22;14871;52.702;5.230;2022-08-14T14:23:33;38.00;40.10
27413;DHT22;14871;52.702;5.230;2022-08-14T14:25:59;38.00;40.20
27413;DHT22;14871;52.702;5.230;2022-08-14T14:28:29;38.10;40.50
27413;DHT22;14871;52.702;5.230;2022-08-14T14:30:56;38.10;41.60
27413;DHT22;14871;52.702;5.230;2022-08-14T14:33:24;38.20;40.70
27413;DHT22;14871;52.702;5.230;2022-08-14T14:35:50;38.10;39.40
27413;DHT22;14871;52.702;5.230;2022-08-14T14:38:16;38.00;39.80
27413;DHT22;14871;52.702;5.230;2022-08-14T14:40:44;38.00;41.10
27413;DHT22;14871;52.702;5.230;2022-08-14T14:43:11;38.10;41.90
27413;DHT22;14871;52.702;5.230;2022-08-14T14:45:39;38.10;41.00
27413;DHT22;14871;52.702;5.230;2022-08-14T14:48:08;38.00;40.00
27413;DHT22;14871;52.702;5.230;2022-08-14T14:50:34;38.00;40.90
27413;DHT22;14871;52.702;5.230;2022-08-14T14:53:03;37.90;41.80
27413;DHT22;14871;52.702;5.230;2022-08-14T14:55:30;38.10;41.10
27413;DHT22;14871;52.702;5.230;2022-08-14T14:58:00;38.10;41.00
27413;DHT22;14871;52.702;5.230;2022-08-14T15:00:25;38.10;41.40
27413;DHT22;14871;52.702;5.230;2022-08-14T15:02:52;38.10;41.90
27413;DHT22;14871;52.702;5.230;2022-08-14T15:05:20;38.10;42.20
27413;DHT22;14871;52.702;5.230;2022-08-14T15:07:48;37.90;42.40
27413;DHT22;14871;52.702;5.230;2022-08-14T15:10:16;37.90;42.40
27413;DHT22;14871;52.702;5.230;2022-08-14T15:12:42;37.80;42.30
27413;DHT22;14871;52.702;5.230;2022-08-14T15:15:09;37.70;43.20
27413;DHT22;14871;52.702;5.230;2022-08-14T15:17:35;37.60;43.70
27413;DHT22;14871;52.702;5.230;2022-08-14T15:20:06;37.60;44.70
27413;DHT22;14871;52.702;5.230;2022-08-14T15:22:34;37.60;44.90
27413;DHT22;14871;52.702;5.230;2022-08-14T15:25:09;37.60;45.10
27413;DHT22;14871;52.702;5.230;2022-08-14T15:27:38;37.70;44.90
27413;DHT22;14871;52.702;5.230;2022-08-14T15:30:06;37.60;44.80
27413;DHT22;14871;52.702;5.230;2022-08-14T15:32:32;37.60;45.10
27413;DHT22;14871;52.702;5.230;2022-08-14T15:34:58;37.60;45.30
27413;DHT22;14871;52.702;5.230;2022-08-14T15:37:24;37.60;44.20
27413;DHT22;14871;52.702;5.230;2022-08-14T15:39:50;37.50;44.00
27413;DHT22;14871;52.702;5.230;2022-08-14T15:42:16;37.40;44.20
27413;DHT22;14871;52.702;5.230;2022-08-14T15:44:43;37.40;44.20
27413;DHT22;14871;52.702;5.230;2022-08-14T15:47:10;37.40;44.20